Time;durP1;ratioP1;P1;durP2;ratioP2;P2;SDS_P1;SDS_P2;PMS_P1;PMS_P2;Temp;Humidity;BMP_temperature;BMP_pressure;BME280_temperature;BME280_humidity;BME280_pressure;Samples;Min_cycle;Max_cycle;Signal;HPM_P1;HPM_P2
2023/01/08 00:00:24;;;;;;;1.30;1.03;;;;;16.30;99395.00;;;;2077865;28;20214;-53
2023/01/08 00:01:25;;;;;;;1.50;1.20;;;;;16.30;99396.00;;;;2077896;28;20221;-55
2023/01/08 00:02:25;;;;;;;1.30;1.20;;;;;16.30;99389.00;;;;2076822;28;20221;-55
2023/01/08 00:03:26;;;;;;;1.13;1.00;;;;;16.40;99387.00;;;;2077810;28;20210;-54
2023/01/08 00:04:26;;;;;;;1.23;1.13;;;;;16.40;99390.00;;;;2077979;28;20217;-54
2023/01/08 00:05:26;;;;;;;1.33;1.23;;;;;16.40;99394.00;;;;2077940;28;20217;-55
2023/01/08 00:06:26;;;;;;;1.40;1.30;;;;;16.30;99387.00;;;;2077846;28;20213;-55
2023/01/08 00:07:27;;;;;;;1.37;1.20;;;;;16.40;99396.00;;;;2077981;28;20301;-52
2023/01/08 00:08:28;;;;;;;0.93;0.87;;;;;16.40;99388.00;;;;2077982;28;20220;-53
2023/01/08 00:09:28;;;;;;;1.30;1.10;;;;;16.40;99378.00;;;;2075353;28;20779;-55
2023/01/08 00:10:29;;;;;;;1.20;1.00;;;;;16.10;99374.00;;;;2076108;28;20312;-55
2023/01/08 00:11:29;;;;;;;1.23;1.10;;;;;16.40;99382.00;;;;2077479;28;20321;-52
2023/01/08 00:12:29;;;;;;;1.37;1.27;;;;;16.40;99371.00;;;;2076141;28;20201;-53
2023/01/08 00:13:30;;;;;;;1.20;1.10;;;;;16.40;99377.00;;;;2077742;28;20239;-55
2023/01/08 00:14:30;;;;;;;1.40;1.30;;;;;16.40;99380.00;;;;2077435;28;20198;-55
2023/01/08 00:15:31;;;;;;;1.37;1.27;;;;;16.40;99378.00;;;;2069961;28;20208;-55
2023/01/08 00:16:31;;;;;;;1.30;1.05;;;;;16.40;99380.00;;;;2074832;28;20213;-54
2023/01/08 00:17:32;;;;;;;1.20;1.00;;;;;16.40;99361.00;;;;2073228;28;20214;-56
2023/01/08 00:18:32;;;;;;;1.60;1.50;;;;;16.40;99371.00;;;;2077449;28;20219;-55
2023/01/08 00:19:33;;;;;;;1.20;1.10;;;;;16.40;99366.00;;;;2077542;28;20209;-55
2023/01/08 00:20:33;;;;;;;1.40;1.00;;;;;16.30;99370.00;;;;2077586;28;20228;-53
2023/01/08 00:21:33;;;;;;;1.30;1.20;;;;;16.40;99382.00;;;;2077876;28;20245;-55
2023/01/08 00:22:34;;;;;;;1.13;1.03;;;;;16.40;99372.00;;;;2075751;28;20669;-52
2023/01/08 00:23:34;;;;;;;1.47;1.20;;;;;16.40;99370.00;;;;2076902;28;20751;-53
2023/01/08 00:24:35;;;;;;;1.10;1.00;;;;;16.40;99360.00;;;;2074042;28;20568;-53
2023/01/08 00:25:35;;;;;;;1.30;1.10;;;;;16.40;99363.00;;;;2076864;28;20332;-53
2023/01/08 00:26:35;;;;;;;1.20;1.10;;;;;16.40;99362.00;;;;2077324;28;20343;-55
2023/01/08 00:27:36;;;;;;;1.30;1.17;;;;;16.40;99355.00;;;;2076615;28;20366;-54
2023/01/08 00:28:36;;;;;;;1.17;1.07;;;;;16.40;99358.00;;;;2077250;28;20229;-54
2023/01/08 00:29:36;;;;;;;1.20;1.10;;;;;16.40;99359.00;;;;2077762;28;20222;-52
2023/01/08 00:30:37;;;;;;;1.30;1.00;;;;;16.40;99361.00;;;;2078162;28;20237;-55
2023/01/08 00:31:37;;;;;;;0.80;0.70;;;;;16.30;99341.00;;;;2079240;28;20279;-54
2023/01/08 00:32:37;;;;;;;1.33;1.20;;;;;16.40;99350.00;;;;2077445;28;20287;-53
2023/01/08 00:33:38;;;;;;;1.40;1.20;;;;;16.40;99345.00;;;;2079763;28;20221;-54
2023/01/08 00:34:39;;;;;;;1.10;0.90;;;;;16.30;99357.00;;;;2079737;28;20308;-52
2023/01/08 00:35:39;;;;;;;1.27;1.10;;;;;16.40;99353.00;;;;2079683;28;20228;-54
2023/01/08 00:36:39;;;;;;;1.30;1.20;;;;;16.40;99342.00;;;;2079783;28;20241;-52
2023/01/08 00:37:40;;;;;;;1.67;1.30;;;;;16.40;99346.00;;;;2079611;28;20992;-52
2023/01/08 00:38:40;;;;;;;1.20;1.10;;;;;16.40;99349.00;;;;2079617;28;20741;-54
2023/01/08 00:39:41;;;;;;;1.13;1.03;;;;;16.40;99347.00;;;;2078079;28;20236;-52
2023/01/08 00:40:41;;;;;;;1.00;0.90;;;;;16.40;99355.00;;;;2079586;28;20460;-53
2023/01/08 00:41:44;;;;;;;1.33;1.00;;;;;16.40;99356.00;;;;2079342;28;20237;-52
2023/01/08 00:42:44;;;;;;;1.20;1.10;;;;;16.40;99336.00;;;;2078442;28;20217;-51
2023/01/08 00:43:44;;;;;;;1.27;1.17;;;;;16.40;99341.00;;;;2079725;28;20351;-53
2023/01/08 00:44:45;;;;;;;1.37;1.03;;;;;16.40;99342.00;;;;2079649;28;20215;-52
2023/01/08 00:45:45;;;;;;;1.47;1.00;;;;;16.40;99347.00;;;;2079426;28;20206;-52
2023/01/08 00:46:45;;;;;;;1.10;1.00;;;;;16.40;99355.00;;;;2079662;28;20217;-55
2023/01/08 00:47:46;;;;;;;1.10;1.00;;;;;16.40;99348.00;;;;2079741;28;20234;-55
2023/01/08 00:48:46;;;;;;;1.20;1.10;;;;;16.40;99347.00;;;;2079913;28;20220;-55
2023/01/08 00:49:46;;;;;;;1.10;1.00;;;;;16.30;99352.00;;;;2079618;28;20221;-56
2023/01/08 00:50:48;;;;;;;1.47;1.13;;;;;16.30;99357.00;;;;2079640;28;20237;-55
2023/01/08 00:51:48;;;;;;;1.45;1.23;;;;;16.40;99348.00;;;;2078685;28;20225;-51
2023/01/08 00:52:48;;;;;;;1.20;1.10;;;;;16.30;99356.00;;;;2079457;28;20709;-55
2023/01/08 00:53:49;;;;;;;1.30;1.13;;;;;16.40;99353.00;;;;2079658;28;20225;-55
2023/01/08 00:54:49;;;;;;;1.57;1.47;;;;;16.30;99350.00;;;;2079671;28;20221;-53
2023/01/08 00:55:49;;;;;;;1.00;0.90;;;;;16.40;99349.00;;;;2079381;28;20303;-52
2023/01/08 00:56:50;;;;;;;1.30;1.20;;;;;16.30;99353.00;;;;2079764;28;20210;-55
2023/01/08 00:57:50;;;;;;;1.37;1.13;;;;;16.30;99344.00;;;;2079723;28;20206;-55
2023/01/08 00:58:50;;;;;;;1.43;1.13;;;;;16.30;99341.00;;;;2079661;28;20233;-55
2023/01/08 00:59:51;;;;;;;1.20;1.03;;;;;16.40;99346.00;;;;2079601;28;20213;-55
2023/01/08 01:00:51;;;;;;;1.10;0.87;;;;;16.30;99335.00;;;;2079703;28;20213;-55
2023/01/08 01:01:53;;;;;;;1.13;0.90;;;;;16.30;99343.00;;;;2078456;28;20229;-55
2023/01/08 01:02:53;;;;;;;1.00;0.90;;;;;16.30;99289.00;;;;2079088;28;20279;-54
2023/01/08 01:03:53;;;;;;;1.30;1.00;;;;;16.30;99330.00;;;;2079497;28;20632;-55
2023/01/08 01:04:54;;;;;;;1.10;1.00;;;;;16.40;99337.00;;;;2079523;28;20913;-55
2023/01/08 01:06:01;;;;;;;1.50;1.40;;;;;16.40;99345.00;;;;2078934;28;20787;-52
2023/01/08 01:07:01;;;;;;;1.40;1.10;;;;;16.40;99332.00;;;;2078046;28;20279;-54
2023/01/08 01:08:02;;;;;;;1.13;1.00;;;;;16.30;99329.00;;;;2078642;28;20225;-54
2023/01/08 01:09:02;;;;;;;1.23;1.13;;;;;16.40;99336.00;;;;2078310;28;20352;-56
2023/01/08 01:10:03;;;;;;;1.20;1.10;;;;;16.40;99332.00;;;;2078585;28;20225;-52
2023/01/08 01:11:07;;;;;;;1.23;1.10;;;;;16.40;99337.00;;;;2079338;28;20224;-55
2023/01/08 01:12:08;;;;;;;1.30;1.20;;;;;16.30;99340.00;;;;2078262;28;20247;-54
2023/01/08 01:13:08;;;;;;;1.20;1.00;;;;;16.30;99332.00;;;;2079443;28;20244;-55
2023/01/08 01:14:08;;;;;;;1.20;1.10;;;;;16.30;99328.00;;;;2079106;28;20670;-55
2023/01/08 01:15:11;;;;;;;1.00;0.90;;;;;16.30;99318.00;;;;2079174;28;20800;-54
2023/01/08 01:16:11;;;;;;;1.25;1.05;;;;;16.30;99321.00;;;;2078530;28;20723;-55
2023/01/08 01:17:12;;;;;;;1.23;1.13;;;;;16.30;99318.00;;;;2078506;28;20241;-55
2023/01/08 01:18:12;;;;;;;1.00;0.83;;;;;16.30;99313.00;;;;2079254;28;20710;-55
2023/01/08 01:19:16;;;;;;;1.07;0.97;;;;;16.30;99319.00;;;;2079169;28;20217;-55
2023/01/08 01:20:16;;;;;;;1.40;1.30;;;;;16.30;99326.00;;;;2078990;28;20686;-55
2023/01/08 01:21:29;;;;;;;1.13;1.03;;;;;16.30;99329.00;;;;2077401;28;20210;-55
2023/01/08 01:22:30;;;;;;;1.10;1.00;;;;;16.40;99332.00;;;;2077834;28;20218;-55
2023/01/08 01:23:31;;;;;;;1.27;1.17;;;;;16.20;99343.00;;;;2079297;28;20846;-55
2023/01/08 01:24:31;;;;;;;1.20;1.10;;;;;16.30;99335.00;;;;2078900;28;20210;-53
2023/01/08 01:25:36;;;;;;;1.10;1.00;;;;;16.40;99332.00;;;;2078892;28;20234;-55
2023/01/08 01:26:36;;;;;;;0.82;0.80;;;;;16.30;99335.00;;;;2079273;28;20213;-55
2023/01/08 01:27:36;;;;;;;1.30;1.10;;;;;16.30;99327.00;;;;2079241;28;20576;-55
2023/01/08 01:28:37;;;;;;;1.47;1.37;;;;;16.30;99323.00;;;;2079148;28;20693;-55
2023/01/08 01:29:37;;;;;;;1.30;1.20;;;;;16.40;99316.00;;;;2079046;28;20218;-53
2023/01/08 01:30:37;;;;;;;1.13;1.03;;;;;16.30;99316.00;;;;2079134;28;20226;-52
2023/01/08 01:31:38;;;;;;;1.40;1.30;;;;;16.30;99317.00;;;;2079496;28;20225;-55
2023/01/08 01:32:38;;;;;;;1.23;1.00;;;;;16.30;99318.00;;;;2078048;28;20674;-55
2023/01/08 01:33:41;;;;;;;1.10;1.00;;;;;16.30;99319.00;;;;2070955;28;20606;-55
2023/01/08 01:34:42;;;;;;;1.10;0.90;;;;;16.30;99322.00;;;;2070402;28;20213;-53
2023/01/08 01:35:42;;;;;;;1.10;0.90;;;;;16.30;99319.00;;;;2070891;28;20211;-55
2023/01/08 01:36:42;;;;;;;1.20;0.90;;;;;16.40;99322.00;;;;2070909;28;20222;-53
2023/01/08 01:37:43;;;;;;;1.47;1.20;;;;;16.40;99322.00;;;;2070511;28;20222;-54
2023/01/08 01:38:44;;;;;;;1.60;1.20;;;;;16.40;99319.00;;;;2071018;28;20238;-54
2023/01/08 01:39:47;;;;;;;1.85;0.93;;;;;16.40;99321.00;;;;2070780;28;20221;-55
2023/01/08 01:40:47;;;;;;;0.90;0.80;;;;;16.40;99332.00;;;;2070702;28;20282;-55
2023/01/08 01:41:48;;;;;;;1.10;1.00;;;;;16.30;99311.00;;;;2070402;28;20402;-55
2023/01/08 01:42:48;;;;;;;1.17;1.07;;;;;16.40;99326.00;;;;2070739;28;20245;-53
2023/01/08 01:43:49;;;;;;;1.03;0.97;;;;;16.30;99324.00;;;;2070876;28;20222;-55
2023/01/08 01:44:49;;;;;;;1.00;0.90;;;;;16.40;99320.00;;;;2071003;28;20255;-55
2023/01/08 01:45:49;;;;;;;1.00;0.90;;;;;16.30;99321.00;;;;2070706;28;20218;-56
2023/01/08 01:46:50;;;;;;;1.40;1.30;;;;;16.40;99318.00;;;;2071085;28;20214;-55
2023/01/08 01:48:02;;;;;;;1.07;0.93;;;;;16.40;99313.00;;;;2069482;28;20218;-55
2023/01/08 01:49:07;;;;;;;1.20;1.10;;;;;16.30;99318.00;;;;2070845;28;20576;-55
2023/01/08 01:50:11;;;;;;;1.45;1.33;;;;;16.30;99326.00;;;;2067520;28;20244;-54
2023/01/08 01:51:11;;;;;;;1.10;1.00;;;;;16.30;99316.00;;;;2062363;28;20278;-55
2023/01/08 01:52:11;;;;;;;1.30;1.20;;;;;16.40;99324.00;;;;2059548;28;20203;-55
2023/01/08 01:53:18;;;;;;;1.10;0.87;;;;;16.40;99326.00;;;;2078235;28;20248;-55
2023/01/08 01:54:18;;;;;;;1.30;0.80;;;;;16.30;99321.00;;;;2060865;28;20703;-55
2023/01/08 01:55:18;;;;;;;0.97;0.80;;;;;16.30;99326.00;;;;2054137;28;20208;-55
2023/01/08 01:56:19;;;;;;;1.20;1.10;;;;;16.30;99322.00;;;;2060156;28;20723;-52
2023/01/08 01:57:19;;;;;;;0.93;0.83;;;;;16.30;99323.00;;;;2060415;28;20207;-54
2023/01/08 01:58:25;;;;;;;1.03;0.90;;;;;16.30;99326.00;;;;2054915;28;20203;-55
2023/01/08 01:59:26;;;;;;;1.15;1.05;;;;;16.30;99344.00;;;;2070207;28;20276;-55
2023/01/08 02:00:26;;;;;;;1.17;0.97;;;;;16.30;99314.00;;;;2070751;28;20569;-54
2023/01/08 02:01:27;;;;;;;1.27;1.10;;;;;16.30;99330.00;;;;2077619;28;20682;-55
2023/01/08 02:02:27;;;;;;;1.20;1.10;;;;;16.30;99329.00;;;;2060537;28;20695;-53
2023/01/08 02:03:29;;;;;;;1.10;1.00;;;;;16.30;99327.00;;;;2069902;28;20214;-53
2023/01/08 02:04:29;;;;;;;1.08;0.90;;;;;16.30;99327.00;;;;2078648;28;20656;-53
2023/01/08 02:05:36;;;;;;;1.20;1.00;;;;;16.30;99323.00;;;;2078747;28;20225;-55
2023/01/08 02:06:40;;;;;;;1.58;1.30;;;;;16.40;99326.00;;;;2069756;28;20218;-54
2023/01/08 02:07:57;;;;;;;1.00;0.90;;;;;16.40;99324.00;;;;2070743;28;20241;-55
2023/01/08 02:09:10;;;;;;;1.20;1.10;;;;;16.40;99322.00;;;;2063375;28;20222;-52
2023/01/08 02:10:35;;;;;;;1.30;1.10;;;;;16.40;99318.00;;;;2065744;28;20238;-54
2023/01/08 02:13:25;;;;;;;1.40;1.30;;;;;16.40;99317.00;;;;2078461;28;20219;-55
2023/01/08 02:14:30;;;;;;;1.08;0.98;;;;;16.30;99315.00;;;;2070006;28;20210;-54
2023/01/08 02:15:47;;;;;;;1.20;0.90;;;;;16.30;99313.00;;;;2072232;28;20256;-54
2023/01/08 02:17:02;;;;;;;0.80;0.80;;;;;16.30;99307.00;;;;2066176;28;20272;-54
2023/01/08 02:18:14;;;;;;;1.35;1.00;;;;;16.30;99310.00;;;;2063802;28;20217;-53
2023/01/08 02:19:17;;;;;;;1.00;0.90;;;;;16.30;99311.00;;;;2066002;28;20215;-53
2023/01/08 02:20:27;;;;;;;1.30;1.20;;;;;16.30;99307.00;;;;2070002;28;20210;-54
2023/01/08 02:21:58;;;;;;;1.10;1.00;;;;;16.30;99305.00;;;;2070494;28;20590;-53
2023/01/08 02:23:01;;;;;;;1.25;0.98;;;;;16.30;99313.00;;;;2075483;28;20236;-55
2023/01/08 02:24:22;;;;;;;1.17;1.00;;;;;16.30;99306.00;;;;2078066;28;20210;-55
2023/01/08 02:25:41;;;;;;;1.27;1.17;;;;;16.30;99298.00;;;;2078013;28;20719;-55
2023/01/08 02:26:42;;;;;;;1.00;0.82;;;;;16.30;99306.00;;;;2078155;28;20704;-54
2023/01/08 02:27:43;;;;;;;1.10;1.00;;;;;16.30;99309.00;;;;2078874;28;20243;-53
2023/01/08 02:28:54;;;;;;;1.05;0.93;;;;;16.30;99308.00;;;;2077872;28;20304;-55
2023/01/08 02:29:54;;;;;;;1.10;1.00;;;;;16.30;99297.00;;;;2071058;28;20211;-54
2023/01/08 02:30:54;;;;;;;1.00;0.93;;;;;16.30;99293.00;;;;2069933;28;20309;-52
2023/01/08 02:31:55;;;;;;;1.27;1.10;;;;;16.30;99289.00;;;;2068615;28;20268;-54
2023/01/08 02:32:55;;;;;;;1.00;0.90;;;;;16.30;99287.00;;;;2077940;28;20217;-55
2023/01/08 02:33:56;;;;;;;0.90;0.80;;;;;16.30;99294.00;;;;2078425;28;20260;-54
2023/01/08 02:34:56;;;;;;;1.00;0.90;;;;;16.30;99289.00;;;;2078541;28;20228;-55
2023/01/08 02:36:11;;;;;;;1.30;1.03;;;;;16.30;99279.00;;;;2071949;28;20304;-55
2023/01/08 02:37:12;;;;;;;1.20;1.10;;;;;16.30;99280.00;;;;2078040;28;20205;-54
2023/01/08 02:38:13;;;;;;;0.97;0.87;;;;;16.30;99291.00;;;;2078019;28;20217;-55
2023/01/08 02:39:33;;;;;;;1.00;0.90;;;;;16.30;99281.00;;;;2077797;28;20216;-55
2023/01/08 02:40:57;;;;;;;1.20;1.00;;;;;16.30;99289.00;;;;2077372;28;20212;-52
2023/01/08 02:42:00;;;;;;;1.00;0.90;;;;;16.30;99281.00;;;;2075055;28;20209;-53
2023/01/08 02:43:06;;;;;;;1.10;1.00;;;;;16.30;99277.00;;;;2077919;28;20228;-54
2023/01/08 02:44:07;;;;;;;1.10;0.90;;;;;16.30;99273.00;;;;2069460;28;20251;-54
2023/01/08 02:45:16;;;;;;;1.53;1.27;;;;;16.30;99271.00;;;;2070130;28;20260;-55
2023/01/08 02:46:22;;;;;;;0.95;0.77;;;;;16.30;99269.00;;;;2077780;28;20213;-55
2023/01/08 02:47:26;;;;;;;1.20;1.10;;;;;16.30;99269.00;;;;2077311;28;20617;-55
2023/01/08 02:48:36;;;;;;;1.77;1.30;;;;;16.30;99266.00;;;;2069440;28;20716;-54
2023/01/08 02:49:38;;;;;;;1.25;0.93;;;;;16.30;99265.00;;;;2070553;28;20220;-55
2023/01/08 02:51:01;;;;;;;0.95;0.85;;;;;16.30;99252.00;;;;2069763;28;20256;-55
2023/01/08 02:52:01;;;;;;;0.90;0.80;;;;;16.30;99263.00;;;;2070740;28;20225;-55
2023/01/08 02:53:12;;;;;;;1.10;1.00;;;;;16.30;99261.00;;;;2078063;28;20308;-55
2023/01/08 02:54:15;;;;;;;1.17;0.98;;;;;16.30;99249.00;;;;2077529;28;20225;-55
2023/01/08 02:55:15;;;;;;;1.15;1.00;;;;;16.30;99252.00;;;;2069767;28;20288;-55
2023/01/08 02:56:18;;;;;;;0.90;0.80;;;;;16.30;99252.00;;;;2069690;28;20214;-55
2023/01/08 02:57:19;;;;;;;1.00;0.80;;;;;16.30;99246.00;;;;2066841;28;20220;-55
2023/01/08 02:58:19;;;;;;;0.87;0.80;;;;;16.30;99248.00;;;;2060035;28;20198;-55
2023/01/08 02:59:19;;;;;;;1.10;1.00;;;;;16.30;99241.00;;;;2061550;28;20231;-55
2023/01/08 03:00:20;;;;;;;1.13;1.00;;;;;16.30;99237.00;;;;2061114;28;20636;-56
2023/01/08 03:01:21;;;;;;;0.90;0.87;;;;;16.30;99237.00;;;;2053456;28;20704;-55
2023/01/08 03:02:21;;;;;;;2.10;1.15;;;;;16.30;99235.00;;;;2059419;28;20580;-55
2023/01/08 03:03:23;;;;;;;0.90;0.80;;;;;16.30;99231.00;;;;2061540;28;20222;-55
2023/01/08 03:04:24;;;;;;;1.10;1.00;;;;;16.30;99237.00;;;;2070476;28;20721;-55
2023/01/08 03:05:26;;;;;;;1.37;1.10;;;;;16.30;99233.00;;;;2061397;28;20219;-55
2023/01/08 03:06:28;;;;;;;1.20;1.05;;;;;16.30;99221.00;;;;2061623;28;21025;-55
2023/01/08 03:07:28;;;;;;;1.13;0.80;;;;;16.30;99230.00;;;;2061732;28;20246;-55
2023/01/08 03:08:28;;;;;;;0.83;0.70;;;;;16.30;99226.00;;;;2061349;28;20215;-55
2023/01/08 03:09:29;;;;;;;1.03;0.80;;;;;16.40;99233.00;;;;2053346;28;20613;-52
2023/01/08 03:10:30;;;;;;;1.43;1.03;;;;;16.30;99226.00;;;;2067115;28;21017;-55
2023/01/08 03:11:52;;;;;;;1.20;1.10;;;;;16.30;99224.00;;;;2077634;28;20452;-55
2023/01/08 03:12:55;;;;;;;1.55;0.95;;;;;16.40;99223.00;;;;2072484;28;20910;-55
2023/01/08 03:14:21;;;;;;;1.30;1.20;;;;;16.40;99227.00;;;;2077858;28;20323;-54
2023/01/08 03:15:35;;;;;;;1.10;1.00;;;;;16.40;99224.00;;;;2077372;28;20309;-54
2023/01/08 03:16:37;;;;;;;1.10;0.85;;;;;16.40;99226.00;;;;2063375;28;20218;-54
2023/01/08 03:17:41;;;;;;;1.00;0.80;;;;;16.40;99222.00;;;;2055467;28;20307;-51
2023/01/08 03:18:48;;;;;;;1.10;0.80;;;;;16.40;99218.00;;;;2061992;28;20229;-54
2023/01/08 03:19:54;;;;;;;1.02;0.70;;;;;16.30;99214.00;;;;2069153;28;20773;-55
2023/01/08 03:20:54;;;;;;;1.23;0.95;;;;;16.40;99217.00;;;;2069757;28;20218;-52
2023/01/08 03:21:55;;;;;;;1.30;0.90;;;;;16.30;99211.00;;;;2068186;28;20718;-55
2023/01/08 03:22:56;;;;;;;1.30;1.00;;;;;16.40;99223.00;;;;2069635;28;20234;-55
2023/01/08 03:23:56;;;;;;;1.25;1.00;;;;;16.30;99213.00;;;;2077355;28;20244;-55
2023/01/08 03:24:57;;;;;;;1.40;1.07;;;;;16.30;99217.00;;;;2077653;28;20210;-55
2023/01/08 03:25:57;;;;;;;1.03;0.93;;;;;16.30;99211.00;;;;2067914;28;20217;-55
2023/01/08 03:26:58;;;;;;;1.27;1.07;;;;;16.30;99212.00;;;;2077552;28;20241;-55
2023/01/08 03:28:03;;;;;;;1.10;0.80;;;;;16.30;99212.00;;;;2069641;28;20309;-55
2023/01/08 03:29:03;;;;;;;1.00;0.90;;;;;16.30;99207.00;;;;2069663;28;20218;-55
2023/01/08 03:30:04;;;;;;;0.90;0.80;;;;;16.30;99224.00;;;;2075917;28;20213;-54
2023/01/08 03:31:04;;;;;;;0.90;0.67;;;;;16.30;99211.00;;;;2069146;28;20249;-53
2023/01/08 03:32:09;;;;;;;1.10;1.00;;;;;16.30;99209.00;;;;2067934;28;20468;-55
2023/01/08 03:33:10;;;;;;;0.95;0.85;;;;;16.30;99209.00;;;;2069345;28;20226;-54
2023/01/08 03:34:10;;;;;;;1.10;0.90;;;;;16.30;99203.00;;;;2069382;28;20214;-54
2023/01/08 03:35:11;;;;;;;1.20;0.97;;;;;16.30;99207.00;;;;2069013;28;20226;-54
2023/01/08 03:36:13;;;;;;;1.03;0.93;;;;;16.40;99208.00;;;;2061376;28;20304;-55
2023/01/08 03:37:14;;;;;;;1.00;0.90;;;;;16.30;99203.00;;;;2053111;28;20882;-55
2023/01/08 03:38:18;;;;;;;0.80;0.70;;;;;16.40;99202.00;;;;2061673;28;20226;-55
2023/01/08 03:39:40;;;;;;;1.27;1.17;;;;;16.40;99186.00;;;;2062078;28;20993;-53
2023/01/08 03:40:46;;;;;;;1.20;1.10;;;;;16.30;99204.00;;;;2063281;28;20210;-53
2023/01/08 03:41:46;;;;;;;1.02;0.68;;;;;16.30;99202.00;;;;2060789;28;20302;-54
2023/01/08 03:42:46;;;;;;;1.00;0.67;;;;;16.30;99201.00;;;;2060172;28;20595;-52
2023/01/08 03:43:47;;;;;;;0.90;0.70;;;;;16.30;99201.00;;;;2069381;28;20249;-52
2023/01/08 03:44:47;;;;;;;0.93;0.80;;;;;16.30;99208.00;;;;2078165;28;20201;-55
2023/01/08 03:45:49;;;;;;;1.10;1.00;;;;;16.30;99212.00;;;;2069359;28;20285;-55
2023/01/08 03:46:51;;;;;;;1.00;0.90;;;;;16.30;99195.00;;;;2052576;28;20219;-58
2023/01/08 03:47:52;;;;;;;1.15;0.95;;;;;16.30;99206.00;;;;2061407;28;20207;-55
2023/01/08 03:48:52;;;;;;;1.03;0.93;;;;;16.30;99214.00;;;;2069378;28;20206;-55
2023/01/08 03:49:52;;;;;;;1.23;0.80;;;;;16.30;99207.00;;;;2069236;28;20210;-54
2023/01/08 03:50:52;;;;;;;1.10;0.90;;;;;16.30;99217.00;;;;2077092;28;20244;-55
2023/01/08 03:51:53;;;;;;;0.80;0.70;;;;;16.30;99206.00;;;;2077119;28;20236;-54
2023/01/08 03:52:53;;;;;;;1.30;1.20;;;;;16.30;99217.00;;;;2078154;28;20268;-53
2023/01/08 03:53:57;;;;;;;1.20;1.00;;;;;16.30;99215.00;;;;2078388;28;20213;-53
2023/01/08 03:54:57;;;;;;;1.10;0.90;;;;;16.30;99220.00;;;;2077561;28;20714;-54
2023/01/08 03:55:57;;;;;;;0.87;0.80;;;;;16.30;99212.00;;;;2077640;28;20289;-54
2023/01/08 03:56:58;;;;;;;1.13;0.80;;;;;16.40;99212.00;;;;2068950;28;20202;-55
2023/01/08 03:57:58;;;;;;;0.97;0.87;;;;;16.30;99195.00;;;;2078304;28;20213;-55
2023/01/08 03:58:58;;;;;;;1.20;1.10;;;;;16.30;99207.00;;;;2078088;28;20221;-55
2023/01/08 03:59:59;;;;;;;1.10;0.90;;;;;16.30;99201.00;;;;2077760;28;20201;-55
2023/01/08 04:00:59;;;;;;;1.30;0.97;;;;;16.30;99199.00;;;;2077836;28;20213;-56
2023/01/08 04:02:00;;;;;;;0.97;0.80;;;;;16.30;99197.00;;;;2075831;28;20213;-54
2023/01/08 04:03:00;;;;;;;1.00;0.90;;;;;16.30;99195.00;;;;2077269;28;20217;-54
2023/01/08 04:04:00;;;;;;;0.93;0.70;;;;;16.30;99187.00;;;;2077262;28;20213;-53
2023/01/08 04:05:01;;;;;;;1.17;0.87;;;;;16.30;99192.00;;;;2076915;28;20221;-52
2023/01/08 04:06:01;;;;;;;1.40;0.80;;;;;16.30;99195.00;;;;2077559;28;20277;-53
2023/01/08 04:07:02;;;;;;;0.80;0.80;;;;;16.30;99198.00;;;;2076312;28;20220;-52
2023/01/08 04:08:02;;;;;;;1.20;0.90;;;;;16.30;99197.00;;;;2076554;28;20225;-55
2023/01/08 04:09:03;;;;;;;0.80;0.70;;;;;16.30;99198.00;;;;2068565;28;20488;-54
2023/01/08 04:10:04;;;;;;;0.70;0.60;;;;;16.30;99196.00;;;;2084511;28;20361;-55
2023/01/08 04:11:04;;;;;;;1.00;0.80;;;;;16.30;99195.00;;;;2083338;28;20315;-51
2023/01/08 04:12:05;;;;;;;1.53;0.90;;;;;16.30;99198.00;;;;2076134;28;20744;-53
2023/01/08 04:13:05;;;;;;;1.10;1.00;;;;;16.30;99207.00;;;;2077973;28;20538;-56
2023/01/08 04:14:05;;;;;;;0.90;0.70;;;;;16.30;99196.00;;;;2077630;28;20205;-55
2023/01/08 04:15:06;;;;;;;1.00;0.90;;;;;16.30;99200.00;;;;2077554;28;20209;-55
2023/01/08 04:16:07;;;;;;;0.90;0.73;;;;;16.30;99192.00;;;;2077932;28;20721;-53
2023/01/08 04:17:10;;;;;;;0.90;0.77;;;;;16.30;99195.00;;;;2077981;28;20201;-54
2023/01/08 04:18:10;;;;;;;1.13;0.90;;;;;16.30;99215.00;;;;2077325;28;20278;-55
2023/01/08 04:19:11;;;;;;;0.90;0.80;;;;;16.30;99191.00;;;;2077216;28;20621;-52
2023/01/08 04:20:11;;;;;;;1.10;0.90;;;;;16.30;99198.00;;;;2077984;28;20650;-55
2023/01/08 04:21:12;;;;;;;1.10;0.80;;;;;16.30;99196.00;;;;2076425;28;20210;-52
2023/01/08 04:22:12;;;;;;;1.10;1.00;;;;;16.30;99197.00;;;;2076741;28;20252;-52
2023/01/08 04:23:13;;;;;;;1.00;0.73;;;;;16.30;99188.00;;;;2077790;28;20209;-55
2023/01/08 04:24:13;;;;;;;1.30;0.80;;;;;16.30;99190.00;;;;2078012;28;20623;-53
2023/01/08 04:25:13;;;;;;;1.13;0.80;;;;;16.30;99190.00;;;;2077631;28;20625;-54
2023/01/08 04:26:14;;;;;;;0.90;0.70;;;;;16.30;99191.00;;;;2078139;28;20217;-55
2023/01/08 04:27:14;;;;;;;1.20;1.10;;;;;16.30;99193.00;;;;2077708;28;20228;-55
2023/01/08 04:28:14;;;;;;;1.00;0.87;;;;;16.30;99189.00;;;;2078212;28;20216;-55
2023/01/08 04:29:15;;;;;;;1.17;0.90;;;;;16.30;99194.00;;;;2078128;28;20248;-55
2023/01/08 04:30:15;;;;;;;0.93;0.83;;;;;16.30;99194.00;;;;2077809;28;20218;-54
2023/01/08 04:31:15;;;;;;;0.93;0.83;;;;;16.30;99184.00;;;;2077997;28;20223;-53
2023/01/08 04:32:16;;;;;;;1.03;0.83;;;;;16.30;99189.00;;;;2076594;28;20614;-55
2023/01/08 04:33:16;;;;;;;1.00;0.80;;;;;16.30;99183.00;;;;2077364;28;20567;-55
2023/01/08 04:34:16;;;;;;;1.10;0.90;;;;;16.30;99186.00;;;;2078009;28;20634;-54
2023/01/08 04:35:17;;;;;;;0.90;0.70;;;;;16.30;99186.00;;;;2077891;28;20593;-55
2023/01/08 04:36:17;;;;;;;0.90;0.80;;;;;16.30;99190.00;;;;2078252;28;20699;-55
2023/01/08 04:37:17;;;;;;;1.30;1.07;;;;;16.30;99183.00;;;;2077802;28;20780;-56
2023/01/08 04:38:18;;;;;;;2.03;1.00;;;;;16.30;99187.00;;;;2078168;28;20202;-52
2023/01/08 04:39:18;;;;;;;0.90;0.73;;;;;16.30;99183.00;;;;2078173;28;20617;-53
2023/01/08 04:40:18;;;;;;;0.90;0.80;;;;;16.30;99181.00;;;;2074217;28;20225;-55
2023/01/08 04:41:19;;;;;;;1.00;0.83;;;;;16.30;99183.00;;;;2075714;28;20221;-55
2023/01/08 04:42:19;;;;;;;1.10;0.80;;;;;16.30;99182.00;;;;2076574;28;20304;-55
2023/01/08 04:43:19;;;;;;;1.07;0.97;;;;;16.30;99184.00;;;;2077343;28;20217;-55
2023/01/08 04:44:19;;;;;;;1.00;0.87;;;;;16.30;99178.00;;;;2078022;28;20229;-55
2023/01/08 04:45:20;;;;;;;0.93;0.83;;;;;16.30;99178.00;;;;2077240;28;20238;-53
2023/01/08 04:46:20;;;;;;;1.10;0.90;;;;;16.40;99185.00;;;;2077411;28;20216;-55
2023/01/08 04:47:21;;;;;;;1.07;0.77;;;;;16.30;99177.00;;;;2077752;28;20864;-55
2023/01/08 04:48:21;;;;;;;0.83;0.70;;;;;16.30;99168.00;;;;2076666;28;20210;-55
2023/01/08 04:49:21;;;;;;;1.53;0.80;;;;;16.30;99170.00;;;;2076935;28;20264;-54
2023/01/08 04:50:22;;;;;;;1.00;0.90;;;;;16.30;99165.00;;;;2077436;28;20257;-55
2023/01/08 04:51:22;;;;;;;1.00;0.90;;;;;16.30;99177.00;;;;2076371;28;20313;-55
2023/01/08 04:52:23;;;;;;;1.43;0.90;;;;;16.30;99173.00;;;;2075753;28;20206;-54
2023/01/08 04:53:23;;;;;;;0.80;0.60;;;;;16.30;99167.00;;;;2077403;28;20222;-54
2023/01/08 04:54:23;;;;;;;1.20;0.80;;;;;16.30;99173.00;;;;2077013;28;20741;-54
2023/01/08 04:55:24;;;;;;;1.30;1.20;;;;;16.30;99171.00;;;;2076878;28;20969;-54
2023/01/08 04:56:24;;;;;;;1.13;0.93;;;;;16.30;99167.00;;;;2076600;28;20210;-55
2023/01/08 04:57:24;;;;;;;1.13;0.70;;;;;16.30;99175.00;;;;2077691;28;20225;-56
2023/01/08 04:58:25;;;;;;;0.93;0.83;;;;;16.30;99159.00;;;;2077519;28;20237;-53
2023/01/08 04:59:25;;;;;;;1.20;1.00;;;;;16.30;99165.00;;;;2077503;28;20209;-53
2023/01/08 05:00:25;;;;;;;0.90;0.80;;;;;16.30;99163.00;;;;2077471;28;20287;-55
2023/01/08 05:01:26;;;;;;;1.20;0.90;;;;;16.30;99160.00;;;;2077548;28;20687;-56
2023/01/08 05:02:26;;;;;;;1.20;0.80;;;;;16.30;99159.00;;;;2076074;28;20595;-54
2023/01/08 05:03:26;;;;;;;0.80;0.77;;;;;16.30;99154.00;;;;2074321;28;20623;-55
2023/01/08 05:04:27;;;;;;;1.70;0.80;;;;;16.30;99147.00;;;;2077702;28;20690;-53
2023/01/08 05:05:27;;;;;;;1.40;1.00;;;;;16.30;99148.00;;;;2078010;28;20716;-52
2023/01/08 05:06:28;;;;;;;1.60;1.00;;;;;16.30;99151.00;;;;2078075;28;20222;-53
2023/01/08 05:07:29;;;;;;;1.30;1.00;;;;;16.30;99139.00;;;;2077742;28;20221;-53
2023/01/08 05:08:29;;;;;;;0.87;0.80;;;;;16.30;99152.00;;;;2077809;28;20217;-55
2023/01/08 05:09:29;;;;;;;1.03;0.93;;;;;16.30;99143.00;;;;2077806;28;20241;-52
2023/01/08 05:10:30;;;;;;;0.77;0.70;;;;;16.30;99146.00;;;;2077554;28;20240;-55
2023/01/08 05:11:30;;;;;;;0.90;0.70;;;;;16.30;99149.00;;;;2077701;28;20229;-55
2023/01/08 05:12:30;;;;;;;1.00;0.80;;;;;16.30;99148.00;;;;2076571;28;20214;-55
2023/01/08 05:13:31;;;;;;;1.00;0.70;;;;;16.30;99150.00;;;;2077846;28;20424;-54